マガダン の空港の天気 - METARとTAF

マガダン・ソコル空港 ( UHMM / GDX ) - ロシア マガダン
飛行場実況気象(Metar)
観測時間02/06 07:00 MAGT (02/05 20:00 UTC)
風向・風速静穏 0m/s
視程10km以上
天気現象弱い雪
全天の8割程度の雲 雲底高度 1190m
気温-21℃
湿度77%
気圧1008hPa
METARUHMM 052000Z 00000MPS 9999 -SN BKN039 M21/M24 Q1008 RMK QFE741 R28/09002MPS
過去の天気等 Google飛行場航空写真 Wunderground天気予報

過去48時間のMETAR

飛行場予報(TAF)
発表時間: 2/06 03:54 MAGT (2/05 16:54 UTC)
予報対象時間: 6日5時 MAGT ~ 7日11時 MAGT
風向・風速東 3m/s
視程10km以上
全天の4割程度の雲 雲底高度 1220m
全天の8割程度の雲 雲底高度 2130m
TAF UHMM 051654Z 0518/0624 09003MPS 9999 SCT040 BKN070